createdAt,value
2019-04-22T00:00:59.537Z,101921.17
2019-04-22T00:03:37.768Z,101922.60
2019-04-22T00:06:32.116Z,101925.04
2019-04-22T00:09:05.521Z,101923.50
2019-04-22T00:11:35.416Z,101929.34
2019-04-22T00:14:10.563Z,101937.00
2019-04-22T00:16:53.601Z,101935.63
2019-04-22T00:19:22.716Z,101946.59
2019-04-22T00:22:00.639Z,101938.47
2019-04-22T00:24:24.246Z,101938.05
2019-04-22T00:27:04.121Z,101949.43
2019-04-22T00:29:49.829Z,101944.49
2019-04-22T00:32:21.288Z,101941.50
2019-04-22T00:34:53.732Z,101943.55
2019-04-22T00:37:32.759Z,101938.09
2019-04-22T00:40:07.223Z,101943.31
2019-04-22T00:42:40.928Z,101940.20
2019-04-22T00:45:13.093Z,101941.13
2019-04-22T00:48:00.715Z,101946.54
2019-04-22T00:50:22.416Z,101946.61
2019-04-22T00:52:59.809Z,101948.31
2019-04-22T00:55:29.259Z,101942.89
2019-04-22T00:58:05.180Z,101948.71
2019-04-22T01:00:37.678Z,101950.24
2019-04-22T01:03:13.401Z,101952.59
2019-04-22T01:05:46.869Z,101950.52
2019-04-22T01:08:23.545Z,101950.27
2019-04-22T01:10:54.019Z,101950.14
2019-04-22T01:13:27.665Z,101947.87
2019-04-22T01:16:01.253Z,101952.06
2019-04-22T01:18:29.338Z,101943.64
2019-04-22T01:21:16.385Z,101951.13
2019-04-22T01:23:43.807Z,101951.13
2019-04-22T01:26:13.953Z,101945.47
2019-04-22T01:28:43.424Z,101946.31
2019-04-22T01:31:10.203Z,101944.33
2019-04-22T01:33:43.898Z,101944.20
2019-04-22T01:36:31.158Z,101944.41
2019-04-22T01:39:09.381Z,101948.08
2019-04-22T01:41:48.786Z,101943.66
2019-04-22T01:44:22.196Z,101948.67
2019-04-22T01:46:50.605Z,101947.20
2019-04-22T01:49:27.557Z,101946.46
2019-04-22T01:54:35.447Z,101957.39
2019-04-22T01:57:07.526Z,101952.13
2019-04-22T01:59:31.510Z,101951.15
2019-04-22T02:02:13.414Z,101954.20
2019-04-22T02:04:51.406Z,101956.55
2019-04-22T02:12:25.650Z,101959.66
2019-04-22T02:14:59.421Z,101956.87
2019-04-22T02:17:37.214Z,101958.59
2019-04-22T02:23:40.279Z,101963.36
2019-04-22T02:25:56.081Z,101971.84
2019-04-22T02:28:55.194Z,101968.75
2019-04-22T02:31:20.048Z,101971.09
2019-04-22T02:44:04.121Z,101971.14
2019-04-22T02:51:40.336Z,101979.52
2019-04-22T03:01:53.189Z,101985.05
2019-04-22T03:04:29.997Z,101987.84
2019-04-22T03:06:43.060Z,101993.61
2019-04-22T03:09:33.742Z,101992.92
2019-04-22T03:12:21.708Z,101994.69
2019-04-22T03:14:38.057Z,101997.48
2019-04-22T03:17:11.241Z,101996.42
2019-04-22T03:20:02.024Z,101997.17
2019-04-22T03:22:19.210Z,102000.59
2019-04-22T03:25:06.124Z,102005.38
2019-04-22T03:37:50.581Z,102013.13
2019-04-22T03:48:05.558Z,102016.90
2019-04-22T03:50:57.547Z,102025.48
2019-04-22T03:53:15.126Z,102020.69
2019-04-22T03:55:59.778Z,102027.22
2019-04-22T03:58:21.563Z,102030.76
2019-04-22T04:03:30.571Z,102036.72
2019-04-22T04:06:00.316Z,102038.11
2019-04-22T04:11:29.962Z,102036.27
2019-04-22T04:13:52.131Z,102039.91
2019-04-22T04:16:21.423Z,102033.68
2019-04-22T04:19:13.898Z,102035.17
2019-04-22T04:21:41.239Z,102041.28
2019-04-22T04:24:32.816Z,102041.02
2019-04-22T04:29:28.343Z,102044.52
2019-04-22T04:31:54.562Z,102042.89
2019-04-22T04:34:37.063Z,102041.80
2019-04-22T04:36:57.833Z,102048.20
2019-04-22T04:39:25.826Z,102044.37
2019-04-22T04:42:05.121Z,102063.06
2019-04-22T04:44:48.291Z,102063.06
2019-04-22T04:49:43.931Z,102060.80
2019-04-22T04:52:25.170Z,102059.48
2019-04-22T04:54:48.400Z,102055.88
2019-04-22T04:57:26.035Z,102050.41
2019-04-22T05:00:25.739Z,102048.20
2019-04-22T05:02:30.985Z,102050.22
2019-04-22T05:07:36.171Z,102058.96
2019-04-22T05:10:10.823Z,102061.09
2019-04-22T05:12:52.961Z,102061.52
2019-04-22T05:15:18.407Z,102067.37
2019-04-22T05:17:55.006Z,102065.81
2019-04-22T05:20:44.926Z,102067.98
2019-04-22T05:22:59.457Z,102064.70
2019-04-22T05:25:22.249Z,102062.95
2019-04-22T05:27:57.577Z,102061.41
2019-04-22T05:30:32.058Z,102064.66
2019-04-22T05:33:08.462Z,102054.28
2019-04-22T05:35:42.437Z,102065.75
2019-04-22T05:38:17.463Z,102056.09
2019-04-22T05:40:40.847Z,102059.31
2019-04-22T05:43:21.317Z,102055.77
2019-04-22T05:45:54.464Z,102053.57
2019-04-22T05:48:33.086Z,102052.38
2019-04-22T05:51:04.465Z,102055.01
2019-04-22T05:53:35.610Z,102053.59
2019-04-22T05:56:17.119Z,102046.75
2019-04-22T05:58:46.390Z,102048.81
2019-04-22T06:03:54.650Z,102051.00
2019-04-22T06:06:20.645Z,102055.20
2019-04-22T06:08:57.572Z,102049.69
2019-04-22T06:13:59.195Z,102053.18
2019-04-22T06:16:43.153Z,102055.50
2019-04-22T06:21:41.795Z,102045.83
2019-04-22T06:29:27.120Z,102056.17
2019-04-22T06:32:17.550Z,102056.52
2019-04-22T06:34:35.858Z,102051.19
2019-04-22T06:39:39.702Z,102051.05
2019-04-22T06:42:19.568Z,102055.18
2019-04-22T06:44:45.708Z,102053.61
2019-04-22T06:47:27.154Z,102061.27
2019-04-22T06:49:55.737Z,102060.55
2019-04-22T06:52:22.030Z,102056.27
2019-04-22T06:54:59.842Z,102053.56
2019-04-22T06:57:39.444Z,102060.92
2019-04-22T07:00:14.253Z,102051.42
2019-04-22T07:02:56.388Z,102054.71
2019-04-22T07:05:17.373Z,102044.38
2019-04-22T07:07:45.540Z,102052.83
2019-04-22T07:10:30.197Z,102046.58
2019-04-22T07:12:56.870Z,102050.11
2019-04-22T07:15:44.147Z,102054.44
2019-04-22T07:18:03.058Z,102049.00
2019-04-22T07:20:39.948Z,102053.84
2019-04-22T07:23:13.615Z,102053.84
2019-04-22T07:25:41.387Z,102059.51
2019-04-22T07:28:17.634Z,102064.90
2019-04-22T07:30:56.136Z,102066.52
2019-04-22T07:33:27.877Z,102072.77
2019-04-22T07:36:32.162Z,102067.03
2019-04-22T07:38:26.809Z,102068.63
2019-04-22T07:40:59.239Z,102063.72
2019-04-22T07:43:51.640Z,102071.03
2019-04-22T07:46:27.289Z,102063.36
2019-04-22T07:48:45.097Z,102058.97
2019-04-22T07:51:23.598Z,102056.42
2019-04-22T07:53:52.315Z,102054.97
2019-04-22T07:56:24.599Z,102056.34
2019-04-22T07:58:56.881Z,102061.25
2019-04-22T08:01:30.837Z,102058.27
2019-04-22T08:06:46.013Z,102051.89
2019-04-22T08:09:13.806Z,102058.29
2019-04-22T08:11:49.928Z,102050.09
2019-04-22T08:14:24.201Z,102051.16
2019-04-22T08:17:01.538Z,102058.03
2019-04-22T08:19:35.651Z,102049.10
2019-04-22T08:24:45.649Z,102045.12
2019-04-22T08:29:48.729Z,102047.39
2019-04-22T08:32:15.548Z,102042.20
2019-04-22T08:34:42.631Z,102046.16
2019-04-22T08:40:01.641Z,102047.04
2019-04-22T08:42:36.566Z,102042.44
2019-04-22T08:47:39.131Z,102037.17
2019-04-22T08:50:21.938Z,102018.75
2019-04-22T08:52:42.067Z,102032.02
2019-04-22T08:55:22.999Z,102028.30
2019-04-22T08:58:10.097Z,102020.02
2019-04-22T09:00:20.308Z,102029.54
2019-04-22T09:03:02.227Z,102023.25
2019-04-22T09:05:42.306Z,102029.06
2019-04-22T09:08:07.366Z,102029.80
2019-04-22T09:10:37.911Z,102030.46
2019-04-22T09:13:10.219Z,102035.38
2019-04-22T09:15:42.475Z,102028.86
2019-04-22T09:18:19.399Z,102028.05
2019-04-22T09:21:04.717Z,102029.70
2019-04-22T09:25:59.908Z,102034.55
2019-04-22T09:28:33.204Z,102026.09
2019-04-22T09:31:09.360Z,102029.62
2019-04-22T09:33:36.880Z,102028.67
2019-04-22T09:36:16.504Z,102029.28
2019-04-22T09:38:41.119Z,102027.09
2019-04-22T09:41:22.737Z,102030.20
2019-04-22T09:43:53.455Z,102029.86
2019-04-22T09:46:32.832Z,102032.70
2019-04-22T09:51:32.149Z,102025.83
2019-04-22T09:54:18.011Z,102032.72
2019-04-22T09:59:14.034Z,102029.45
2019-04-22T10:01:49.063Z,102027.59
2019-04-22T10:04:10.931Z,102022.86
2019-04-22T10:06:50.110Z,102018.09
2019-04-22T10:09:46.971Z,102019.38
2019-04-22T10:12:02.234Z,102015.50
2019-04-22T10:17:07.782Z,102022.64
2019-04-22T10:19:43.926Z,102017.89
2019-04-22T10:22:19.906Z,102018.95
2019-04-22T10:24:44.648Z,102014.40
2019-04-22T10:27:23.894Z,102011.66
2019-04-22T10:32:27.172Z,102010.13
2019-04-22T10:34:48.638Z,102011.25
2019-04-22T10:37:18.074Z,102010.35
2019-04-22T10:39:56.229Z,102007.70
2019-04-22T10:42:23.135Z,102015.73
2019-04-22T10:44:55.588Z,102013.27
2019-04-22T10:47:28.042Z,102003.25
2019-04-22T10:50:00.681Z,101988.54
2019-04-22T10:52:32.462Z,101999.04
2019-04-22T10:55:07.552Z,102001.69
2019-04-22T10:57:40.916Z,101986.39
2019-04-22T11:00:15.657Z,101997.39
2019-04-22T11:02:49.816Z,101996.55
2019-04-22T11:05:22.017Z,102007.70
2019-04-22T11:07:59.396Z,101994.50
2019-04-22T11:10:45.532Z,101986.64
2019-04-22T11:13:07.170Z,101983.14
2019-04-22T11:15:40.493Z,101984.94
2019-04-22T11:18:13.484Z,101989.93
2019-04-22T11:20:45.147Z,101988.25
2019-04-22T11:23:16.894Z,101970.95
2019-04-22T11:25:49.920Z,101978.97
2019-04-22T11:28:22.000Z,101974.64
2019-04-22T11:30:54.781Z,101976.86
2019-04-22T11:33:27.715Z,101967.27
2019-04-22T11:36:00.025Z,101965.95
2019-04-22T11:38:32.963Z,101967.81
2019-04-22T11:41:05.532Z,101973.36
2019-04-22T11:43:41.054Z,101969.19
2019-04-22T11:46:13.572Z,101967.76
2019-04-22T11:48:45.701Z,101949.80
2019-04-22T11:51:18.215Z,101952.94
2019-04-22T11:53:50.183Z,101959.73
2019-04-22T11:56:22.931Z,101962.59
2019-04-22T11:58:55.176Z,101969.37
2019-04-22T12:01:28.632Z,101962.41
2019-04-22T12:04:02.157Z,101958.30
2019-04-22T12:06:35.834Z,101959.73
2019-04-22T12:09:12.122Z,101960.47
2019-04-22T12:11:44.408Z,101957.84
2019-04-22T12:14:16.360Z,101952.92
2019-04-22T12:16:49.630Z,101951.70
2019-04-22T12:19:21.399Z,101951.16
2019-04-22T12:21:53.472Z,101949.19
2019-04-22T12:24:25.311Z,101943.22
2019-04-22T12:26:58.053Z,101935.23
2019-04-22T12:29:31.040Z,101935.14
2019-04-22T12:32:03.275Z,101943.34
2019-04-22T12:34:35.436Z,101938.44
2019-04-22T12:37:08.701Z,101946.71
2019-04-22T12:39:41.190Z,101945.16
2019-04-22T12:42:13.151Z,101943.24
2019-04-22T12:44:45.847Z,101947.96
2019-04-22T12:47:18.126Z,101941.89
2019-04-22T12:49:59.799Z,101944.80
2019-04-22T12:52:32.349Z,101936.25
2019-04-22T12:54:57.408Z,101932.32
2019-04-22T12:57:30.267Z,101924.87
2019-04-22T13:00:02.069Z,101940.22
2019-04-22T13:02:36.706Z,101946.67
2019-04-22T13:05:10.121Z,101946.67
2019-04-22T13:07:41.918Z,101940.66
2019-04-22T13:10:15.725Z,101937.03
2019-04-22T13:12:48.795Z,101940.59
2019-04-22T13:15:22.145Z,101942.37
2019-04-22T13:18:06.036Z,101938.84
2019-04-22T13:20:28.203Z,101942.06
2019-04-22T13:23:00.051Z,101941.19
2019-04-22T13:25:32.552Z,101948.45
2019-04-22T13:28:04.983Z,101938.59
2019-04-22T13:30:38.640Z,101941.34
2019-04-22T13:33:10.806Z,101939.17
2019-04-22T13:35:43.817Z,101936.26
2019-04-22T13:38:17.162Z,101934.16
2019-04-22T13:41:00.885Z,101930.86
2019-04-22T13:43:22.892Z,101936.42
2019-04-22T13:45:56.053Z,101928.26
2019-04-22T13:48:46.250Z,101930.20
2019-04-22T13:51:33.966Z,101929.05
2019-04-22T13:56:31.480Z,101934.97
2019-04-22T13:58:53.062Z,101932.59
2019-04-22T14:01:16.587Z,101929.42
2019-04-22T14:03:56.612Z,101925.50
2019-04-22T14:06:29.104Z,101931.13
2019-04-22T14:09:01.202Z,101932.05
2019-04-22T14:11:41.559Z,101928.16
2019-04-22T14:14:09.050Z,101933.43
2019-04-22T14:16:41.096Z,101928.45
2019-04-22T14:19:14.008Z,101926.95
2019-04-22T14:21:47.471Z,101925.63
2019-04-22T14:24:19.823Z,101925.56
2019-04-22T14:27:09.422Z,101923.53
2019-04-22T14:29:26.010Z,101929.05
2019-04-22T14:32:05.265Z,101926.46
2019-04-22T14:34:32.147Z,101920.97
2019-04-22T14:37:05.485Z,101931.42
2019-04-22T14:39:38.024Z,101924.96
2019-04-22T14:42:28.372Z,101930.12
2019-04-22T14:45:20.239Z,101928.56
2019-04-22T14:47:39.775Z,101929.95
2019-04-22T14:50:16.241Z,101931.43
2019-04-22T14:52:46.251Z,101934.11
2019-04-22T14:55:05.961Z,101943.84
2019-04-22T14:57:31.753Z,101934.86
2019-04-22T15:00:06.125Z,101936.69
2019-04-22T15:02:39.428Z,101942.08
2019-04-22T15:05:12.280Z,101940.78
2019-04-22T15:07:44.639Z,101941.53
2019-04-22T15:10:18.069Z,101941.91
2019-04-22T15:12:53.423Z,101945.70
2019-04-22T15:15:40.550Z,101944.59
2019-04-22T15:18:13.526Z,101951.39
2019-04-22T15:20:52.404Z,101946.82
2019-04-22T15:23:24.655Z,101943.19
2019-04-22T15:25:56.792Z,101943.77
2019-04-22T15:28:29.264Z,101942.45
2019-04-22T15:31:01.573Z,101949.39
2019-04-22T15:33:33.446Z,101946.77
2019-04-22T15:36:05.843Z,101945.39
2019-04-22T15:38:38.343Z,101942.63
2019-04-22T15:41:10.434Z,101947.23
2019-04-22T15:43:43.582Z,101945.92
2019-04-22T15:46:15.948Z,101945.63
2019-04-22T15:48:48.446Z,101953.16
2019-04-22T15:51:20.729Z,101958.49
2019-04-22T15:53:53.805Z,101957.54
2019-04-22T15:56:26.559Z,101958.81
2019-04-22T15:58:59.701Z,101956.42
2019-04-22T16:01:44.727Z,101952.31
2019-04-22T16:04:16.971Z,101961.30
2019-04-22T16:06:49.381Z,101960.33
2019-04-22T16:09:22.631Z,101958.25
2019-04-22T16:11:54.825Z,101962.42
2019-04-22T16:14:32.808Z,101962.73
2019-04-22T16:17:00.851Z,101963.51
2019-04-22T16:19:33.005Z,101964.14
2019-04-22T16:22:09.342Z,101968.24
2019-04-22T16:24:45.968Z,101972.03
2019-04-22T16:27:20.789Z,101973.45
2019-04-22T16:29:52.602Z,101973.19
2019-04-22T16:32:25.553Z,101976.22
2019-04-22T16:34:58.721Z,101977.36
2019-04-22T16:37:30.644Z,101977.09
2019-04-22T16:40:03.145Z,101977.56
2019-04-22T16:42:43.254Z,101983.45
2019-04-22T16:45:09.435Z,101980.63
2019-04-22T16:47:42.172Z,101982.13
2019-04-22T16:50:15.928Z,101991.19
2019-04-22T16:52:48.255Z,101989.37
2019-04-22T16:55:21.211Z,101988.32
2019-04-22T16:57:54.590Z,101997.32
2019-04-22T17:00:27.021Z,101998.98
2019-04-22T17:03:10.815Z,101998.72
2019-04-22T17:05:45.648Z,102004.16
2019-04-22T17:08:18.481Z,102004.42
2019-04-22T17:10:51.673Z,102009.00
2019-04-22T17:13:28.369Z,102008.41
2019-04-22T17:16:00.480Z,102008.09
2019-04-22T17:18:32.947Z,102015.91
2019-04-22T17:21:08.183Z,102022.28
2019-04-22T17:23:38.966Z,102022.28
2019-04-22T17:26:12.435Z,102025.73
2019-04-22T17:28:45.754Z,102025.09
2019-04-22T17:31:18.580Z,102031.26
2019-04-22T17:33:53.020Z,102031.66
2019-04-22T17:36:26.412Z,102039.13
2019-04-22T17:39:15.840Z,102034.16
2019-04-22T17:41:50.586Z,102042.57
2019-04-22T17:44:37.734Z,102042.57
2019-04-22T17:47:02.518Z,102042.16
2019-04-22T17:49:50.490Z,102039.03
2019-04-22T17:52:23.175Z,102047.34
2019-04-22T17:54:50.559Z,102042.84
2019-04-22T17:57:24.125Z,102047.09
2019-04-22T17:59:55.275Z,102053.19
2019-04-22T18:02:26.837Z,102060.91
2019-04-22T18:04:53.340Z,102052.95
2019-04-22T18:07:38.584Z,102054.73
2019-04-22T18:10:27.476Z,102055.92
2019-04-22T18:12:50.102Z,102058.19
2019-04-22T18:15:19.115Z,102056.41
2019-04-22T18:18:00.530Z,102058.37
2019-04-22T18:20:23.874Z,102060.92
2019-04-22T18:22:54.774Z,102059.12
2019-04-22T18:25:33.895Z,102052.22
2019-04-22T18:30:37.328Z,102054.84
2019-04-22T18:33:19.062Z,102052.78
2019-04-22T18:35:49.181Z,102057.52
2019-04-22T18:38:33.004Z,102062.54
2019-04-22T18:41:01.634Z,102059.38
2019-04-22T18:43:33.937Z,102057.60
2019-04-22T18:46:12.420Z,102055.04
2019-04-22T18:48:46.106Z,102064.41
2019-04-22T18:51:24.720Z,102062.45
2019-04-22T18:53:53.993Z,102063.51
2019-04-22T18:56:32.490Z,102071.55
2019-04-22T18:58:53.473Z,102067.12
2019-04-22T19:01:17.725Z,102063.68
2019-04-22T19:03:58.096Z,102069.44
2019-04-22T19:06:50.536Z,102067.64
2019-04-22T19:09:21.088Z,102069.11
2019-04-22T19:12:03.162Z,102063.30
2019-04-22T19:14:24.794Z,102068.05
2019-04-22T19:17:05.917Z,102066.64
2019-04-22T19:22:03.529Z,102066.82
2019-04-22T19:24:37.200Z,102070.53
2019-04-22T19:27:10.982Z,102074.20
2019-04-22T19:29:54.458Z,102074.92
2019-04-22T19:32:21.097Z,102084.73
2019-04-22T19:34:54.145Z,102075.70
2019-04-22T19:37:25.771Z,102074.53
2019-04-22T19:40:09.483Z,102076.81
2019-04-22T19:45:09.052Z,102073.92
2019-04-22T19:47:43.592Z,102074.93
2019-04-22T19:50:21.351Z,102078.09
2019-04-22T19:52:44.705Z,102074.73
2019-04-22T19:55:23.889Z,102077.52
2019-04-22T19:57:55.448Z,102083.30
2019-04-22T20:00:31.656Z,102082.34
2019-04-22T20:03:18.599Z,102091.13
2019-04-22T20:05:53.066Z,102093.98
2019-04-22T20:08:36.704Z,102090.84
2019-04-22T20:11:03.957Z,102095.64
2019-04-22T20:13:37.175Z,102097.15
2019-04-22T20:15:56.077Z,102090.27
2019-04-22T20:21:17.952Z,102105.92
2019-04-22T20:23:39.670Z,102102.27
2019-04-22T20:26:12.521Z,102096.66
2019-04-22T20:28:52.727Z,102101.61
2019-04-22T20:31:24.812Z,102104.14
2019-04-22T20:34:04.644Z,102104.52
2019-04-22T20:36:53.552Z,102105.94
2019-04-22T20:39:03.546Z,102102.78
2019-04-22T20:41:36.734Z,102106.05
2019-04-22T20:44:16.351Z,102108.83
2019-04-22T20:46:44.927Z,102115.16
2019-04-22T20:49:25.383Z,102115.53
2019-04-22T20:54:28.446Z,102118.19
2019-04-22T20:56:55.031Z,102115.34
2019-04-22T20:59:32.945Z,102121.08
2019-04-22T21:02:03.446Z,102124.13
2019-04-22T21:04:35.891Z,102125.02
2019-04-22T21:07:13.837Z,102129.41
2019-04-22T21:09:52.415Z,102129.45
2019-04-22T21:12:18.937Z,102129.50
2019-04-22T21:15:03.563Z,102127.89
2019-04-22T21:17:30.964Z,102125.77
2019-04-22T21:20:14.075Z,102136.06
2019-04-22T21:22:38.398Z,102125.27
2019-04-22T21:25:07.519Z,102132.41
2019-04-22T21:27:51.139Z,102134.91
2019-04-22T21:30:19.489Z,102138.56
2019-04-22T21:32:52.083Z,102137.63
2019-04-22T21:35:47.242Z,102142.09
2019-04-22T21:38:11.316Z,102145.00
2019-04-22T21:40:38.367Z,102140.06
2019-04-22T21:43:16.232Z,102143.77
2019-04-22T21:45:37.640Z,102143.15
2019-04-22T21:48:27.993Z,102149.27
2019-04-22T21:53:31.284Z,102147.23
2019-04-22T21:56:11.857Z,102140.64
2019-04-22T21:58:41.301Z,102140.23
2019-04-22T22:01:18.896Z,102137.77
2019-04-22T22:03:52.280Z,102138.11
2019-04-22T22:06:16.629Z,102137.00
2019-04-22T22:08:56.798Z,102136.49
2019-04-22T22:11:27.793Z,102133.33
2019-04-22T22:14:04.628Z,102137.89
2019-04-22T22:16:31.599Z,102141.41
2019-04-22T22:19:10.948Z,102146.70
2019-04-22T22:21:53.197Z,102144.84
2019-04-22T22:24:34.343Z,102146.52
2019-04-22T22:26:50.387Z,102142.17
2019-04-22T22:29:38.272Z,102143.34
2019-04-22T22:31:58.156Z,102145.28
2019-04-22T22:34:26.658Z,102142.42
2019-04-22T22:36:56.088Z,102142.22
2019-04-22T22:39:30.993Z,102143.45
2019-04-22T22:41:52.018Z,102132.52
2019-04-22T22:44:30.318Z,102136.95
2019-04-22T22:47:16.069Z,102147.78
2019-04-22T22:49:54.630Z,102147.17
2019-04-22T22:54:58.937Z,102141.70
2019-04-22T23:00:03.766Z,102143.75
2019-04-22T23:02:46.928Z,102151.17
2019-04-22T23:05:16.876Z,102152.20
2019-04-22T23:07:54.236Z,102152.09
2019-04-22T23:10:16.086Z,102154.48
2019-04-22T23:13:05.345Z,102153.42
2019-04-22T23:15:24.991Z,102150.25
2019-04-22T23:17:43.706Z,102150.25
2019-04-22T23:20:18.521Z,102149.41
2019-04-22T23:23:13.802Z,102151.48
2019-04-22T23:25:49.955Z,102153.73
2019-04-22T23:28:19.290Z,102158.37
2019-04-22T23:30:46.375Z,102155.27
2019-04-22T23:33:32.475Z,102160.02
2019-04-22T23:36:06.386Z,102161.84
2019-04-22T23:38:47.524Z,102170.08
2019-04-22T23:44:15.938Z,102176.37
2019-04-22T23:46:56.714Z,102174.39
2019-04-22T23:49:26.736Z,102159.56
2019-04-22T23:52:14.717Z,102172.75
2019-04-22T23:54:52.400Z,102174.38
2019-04-22T23:57:15.549Z,102170.55
2019-04-22T23:59:57.201Z,102166.83
